Time;durP1;ratioP1;P1;durP2;ratioP2;P2;SDS_P1;SDS_P2;PMS_P1;PMS_P2;Temp;Humidity;BMP_temperature;BMP_pressure;BME280_temperature;BME280_humidity;BME280_pressure;Samples;Min_cycle;Max_cycle;Signal;HPM_P1;HPM_P2
2021/05/03 00:00:44;;;;;;;;;;;;;;;4.99;100.00;100806.91;5091095;28;20046;-70
2021/05/03 00:03:10;;;;;;;;;;;;;;;4.98;100.00;100816.81;5091101;28;20372;-70
2021/05/03 00:05:36;;;;;;;;;;;;;;;4.98;100.00;100818.63;5090810;28;19924;-70
2021/05/03 00:08:03;;;;;;;;;;;;;;;4.97;100.00;100812.38;5090853;28;19924;-70
2021/05/03 00:10:28;;;;;;;;;;;;;;;4.93;100.00;100812.63;5090666;28;19928;-70
2021/05/03 00:12:54;;;;;;;;;;;;;;;4.93;100.00;100813.50;5089677;28;19924;-70
2021/05/03 00:15:20;;;;;;;;;;;;;;;4.93;100.00;100818.00;5090526;28;19924;-70
2021/05/03 00:17:46;;;;;;;;;;;;;;;4.91;100.00;100811.88;5090847;28;20406;-70
2021/05/03 00:20:12;;;;;;;;;;;;;;;4.89;100.00;100813.75;5090762;28;19928;-72
2021/05/03 00:22:38;;;;;;;;;;;;;;;4.86;100.00;100815.69;5089664;28;19928;-72
2021/05/03 00:25:06;;;;;;;;;;;;;;;4.83;100.00;100815.84;5090656;28;20337;-71
2021/05/03 00:27:31;;;;;;;;;;;;;;;4.83;100.00;100818.53;5090572;28;19928;-70
2021/05/03 00:29:57;;;;;;;;;;;;;;;4.84;100.00;100825.66;5089438;28;20294;-72
2021/05/03 00:32:23;;;;;;;;;;;;;;;4.84;100.00;100830.16;5090894;28;20398;-70
2021/05/03 00:34:49;;;;;;;;;;;;;;;4.81;100.00;100825.81;5090812;28;19970;-72
2021/05/03 00:37:15;;;;;;;;;;;;;;;4.81;100.00;100827.63;5090389;28;19950;-72
2021/05/03 00:39:40;;;;;;;;;;;;;;;4.81;100.00;100833.91;5090636;28;20307;-71
2021/05/03 00:42:07;;;;;;;;;;;;;;;4.80;100.00;100834.84;5090605;28;20394;-72
2021/05/03 00:44:33;;;;;;;;;;;;;;;4.80;100.00;100829.47;5093354;28;20271;-71
2021/05/03 00:46:59;;;;;;;;;;;;;;;4.78;100.00;100836.72;5093878;28;19959;-72
2021/05/03 00:49:25;;;;;;;;;;;;;;;4.75;100.00;100834.22;5092613;28;20615;-71
2021/05/03 00:51:51;;;;;;;;;;;;;;;4.73;100.00;100837.94;5094306;28;19924;-71
2021/05/03 00:54:17;;;;;;;;;;;;;;;4.69;100.00;100835.44;5094078;28;19931;-72
2021/05/03 00:56:43;;;;;;;;;;;;;;;4.66;100.00;100841.00;5094059;28;19954;-71
2021/05/03 00:59:10;;;;;;;;;;;;;;;4.65;100.00;100838.38;5093947;28;20406;-71
2021/05/03 01:01:35;;;;;;;;;;;;;;;4.64;100.00;100845.56;5095148;28;19931;-71
2021/05/03 01:04:01;;;;;;;;;;;;;;;4.62;100.00;100841.22;5094625;28;19963;-71
2021/05/03 01:06:27;;;;;;;;;;;;;;;4.62;100.00;100854.66;5094137;28;20004;-71
2021/05/03 01:08:53;;;;;;;;;;;;;;;4.59;100.00;100846.78;5094309;28;19928;-71
2021/05/03 01:11:19;;;;;;;;;;;;;;;4.60;100.00;100853.91;5093868;28;19985;-71
2021/05/03 01:13:44;;;;;;;;;;;;;;;4.59;100.00;100854.84;5092724;28;20284;-71
2021/05/03 01:16:11;;;;;;;;;;;;;;;4.56;100.00;100849.63;5093444;28;19973;-72
2021/05/03 01:18:37;;;;;;;;;;;;;;;4.55;100.00;100851.44;5093702;28;19971;-72
2021/05/03 01:21:04;;;;;;;;;;;;;;;4.53;100.00;100848.84;5093638;28;19928;-71
2021/05/03 01:23:30;;;;;;;;;;;;;;;4.52;100.00;100857.00;5093443;28;20188;-72
2021/05/03 01:25:56;;;;;;;;;;;;;;;4.50;100.00;100854.41;5092936;28;19924;-71
2021/05/03 01:28:22;;;;;;;;;;;;;;;4.49;100.00;100851.75;5093404;28;19924;-72
2021/05/03 01:30:48;;;;;;;;;;;;;;;4.48;100.00;100858.13;5091916;28;20275;-72
2021/05/03 01:33:15;;;;;;;;;;;;;;;4.47;100.00;100859.91;5093478;28;20391;-72
2021/05/03 01:35:42;;;;;;;;;;;;;;;4.47;100.00;100859.06;5091873;28;19925;-72
2021/05/03 01:38:09;;;;;;;;;;;;;;;4.46;100.00;100860.91;5093244;28;19932;-72
2021/05/03 01:40:37;;;;;;;;;;;;;;;4.45;100.00;100869.91;5092960;28;20295;-72
2021/05/03 01:43:10;;;;;;;;;;;;;;;4.44;100.00;100872.69;5093205;28;20425;-71
2021/05/03 01:45:37;;;;;;;;;;;;;;;4.43;100.00;100862.88;5092494;28;19924;-72
2021/05/03 01:48:03;;;;;;;;;;;;;;;4.41;100.00;100867.44;5093028;28;19928;-72
2021/05/03 01:50:29;;;;;;;;;;;;;;;4.40;100.00;100865.72;5093188;28;19928;-71
2021/05/03 01:52:55;;;;;;;;;;;;;;;4.40;100.00;100880.03;5092874;28;19930;-71
2021/05/03 01:55:22;;;;;;;;;;;;;;;4.38;100.00;100875.69;5092679;28;19931;-72
2021/05/03 01:57:48;;;;;;;;;;;;;;;4.38;100.00;100878.38;5092588;28;19931;-72
2021/05/03 02:00:15;;;;;;;;;;;;;;;4.34;100.00;100877.66;5091018;28;19924;-72
2021/05/03 02:02:44;;;;;;;;;;;;;;;4.33;100.00;100884.00;5092704;28;20392;-72
2021/05/03 02:05:16;;;;;;;;;;;;;;;4.33;100.00;100884.00;5092541;28;19932;-71
2021/05/03 02:07:41;;;;;;;;;;;;;;;4.31;100.00;100884.06;5092629;28;19967;-71
2021/05/03 02:10:07;;;;;;;;;;;;;;;4.29;100.00;100887.78;5092490;28;19924;-71
2021/05/03 02:12:37;;;;;;;;;;;;;;;4.28;100.00;100886.91;5092658;28;19962;-72
2021/05/03 02:15:03;;;;;;;;;;;;;;;4.27;100.00;100890.53;5092332;28;20017;-71
2021/05/03 02:17:28;;;;;;;;;;;;;;;4.28;100.00;100892.28;5091804;28;19973;-72
2021/05/03 02:19:54;;;;;;;;;;;;;;;4.29;100.00;100893.16;5092269;28;19924;-71
2021/05/03 02:22:20;;;;;;;;;;;;;;;4.26;100.00;100888.81;5092357;28;19924;-72
2021/05/03 02:24:46;;;;;;;;;;;;;;;4.26;100.00;100888.81;5092326;28;19931;-71
2021/05/03 02:27:11;;;;;;;;;;;;;;;4.24;100.00;100887.16;5092069;28;19924;-72
2021/05/03 02:29:38;;;;;;;;;;;;;;;4.24;100.00;100895.22;5092157;28;19931;-71
2021/05/03 02:32:04;;;;;;;;;;;;;;;4.26;100.00;100893.31;5092109;28;19932;-72
2021/05/03 02:34:30;;;;;;;;;;;;;;;4.25;100.00;100892.47;5092135;28;19924;-71
2021/05/03 02:36:56;;;;;;;;;;;;;;;4.25;100.00;100895.16;5091584;28;19924;-72
2021/05/03 02:39:22;;;;;;;;;;;;;;;4.26;100.00;100898.69;5091984;28;19947;-72
2021/05/03 02:41:47;;;;;;;;;;;;;;;4.26;100.00;100891.53;5092066;28;20387;-72
2021/05/03 02:44:14;;;;;;;;;;;;;;;4.26;100.00;100898.69;5091818;28;19943;-72
2021/05/03 02:46:41;;;;;;;;;;;;;;;4.26;100.00;100896.00;5091707;28;19931;-72
2021/05/03 02:49:07;;;;;;;;;;;;;;;4.26;100.00;100904.06;5091702;28;19924;-71
2021/05/03 02:51:33;;;;;;;;;;;;;;;4.26;100.00;100899.56;5091478;28;19931;-72
2021/05/03 02:53:59;;;;;;;;;;;;;;;4.27;100.00;100905.81;5091713;28;19924;-72
2021/05/03 02:56:24;;;;;;;;;;;;;;;4.24;100.00;100912.22;5091445;28;20406;-72
2021/05/03 02:58:50;;;;;;;;;;;;;;;4.25;100.00;100913.97;5090477;28;19924;-72
2021/05/03 03:01:16;;;;;;;;;;;;;;;4.25;100.00;100913.06;5091522;28;19924;-72
2021/05/03 03:03:43;;;;;;;;;;;;;;;4.26;100.00;100921.06;5091608;28;19963;-72
2021/05/03 03:06:08;;;;;;;;;;;;;;;4.24;100.00;100914.03;5089509;28;19924;-72
2021/05/03 03:08:34;;;;;;;;;;;;;;;4.24;100.00;100916.72;5091271;28;19962;-72
2021/05/03 03:11:00;;;;;;;;;;;;;;;4.23;100.00;100928.41;5091424;28;19924;-72
2021/05/03 03:13:26;;;;;;;;;;;;;;;4.21;100.00;100917.75;5091337;28;19924;-72
2021/05/03 03:15:52;;;;;;;;;;;;;;;4.17;100.00;100925.09;5091337;28;19985;-72
2021/05/03 03:18:17;;;;;;;;;;;;;;;4.13;100.00;100926.19;5091057;28;20344;-72
2021/05/03 03:20:44;;;;;;;;;;;;;;;4.13;100.00;100928.88;5091419;28;19924;-72
2021/05/03 03:23:10;;;;;;;;;;;;;;;4.12;100.00;100929.81;5091109;28;19971;-71
2021/05/03 03:25:36;;;;;;;;;;;;;;;4.11;100.00;100927.22;5091066;28;20376;-72
2021/05/03 03:28:02;;;;;;;;;;;;;;;4.09;100.00;100935.38;5090721;28;20410;-71
2021/05/03 03:30:27;;;;;;;;;;;;;;;4.08;100.00;100928.25;5091043;28;19930;-72
2021/05/03 03:32:53;;;;;;;;;;;;;;;4.07;100.00;100931.88;5091490;28;19988;-72
2021/05/03 03:35:20;;;;;;;;;;;;;;;4.08;100.00;100932.75;5090566;28;20177;-72
2021/05/03 03:37:47;;;;;;;;;;;;;;;4.06;100.00;100940.88;5091112;28;19932;-72
2021/05/03 03:40:14;;;;;;;;;;;;;;;4.05;100.00;100943.66;5091097;28;19973;-72
2021/05/03 03:42:40;;;;;;;;;;;;;;;4.02;100.00;100945.56;5091393;28;19982;-71
2021/05/03 03:45:07;;;;;;;;;;;;;;;3.98;100.00;100940.41;5091096;28;19928;-71
2021/05/03 03:47:33;;;;;;;;;;;;;;;3.96;100.00;100950.38;5090543;28;19974;-72
2021/05/03 03:49:59;;;;;;;;;;;;;;;3.94;100.00;100946.88;5090884;28;19932;-72
2021/05/03 03:52:25;;;;;;;;;;;;;;;3.90;100.00;100948.88;5091007;28;19924;-71
2021/05/03 03:54:51;;;;;;;;;;;;;;;3.86;100.00;100947.25;5091085;28;19924;-72
2021/05/03 03:57:18;;;;;;;;;;;;;;;3.81;100.00;100958.22;5091064;28;19967;-72
2021/05/03 03:59:45;;;;;;;;;;;;;;;3.81;100.00;100949.31;5085658;28;19928;-72
2021/05/03 04:02:11;;;;;;;;;;;;;;;3.78;100.00;100961.09;5090831;28;19977;-72
2021/05/03 04:04:40;;;;;;;;;;;;;;;3.77;100.00;100962.00;5071899;28;20012;-72
2021/05/03 04:07:12;;;;;;;;;;;;;;;3.79;100.00;100962.78;5070445;28;19932;-72
2021/05/03 04:09:43;;;;;;;;;;;;;;;3.77;100.00;100967.38;5070424;28;19932;-72
2021/05/03 04:12:29;;;;;;;;;;;;;;;3.74;100.00;100977.41;5070772;28;20406;-72
2021/05/03 04:23:47;;;;;;;;;;;;;;;3.67;100.00;100987.56;5050316;28;20023;-72
2021/05/03 04:26:13;;;;;;;;;;;;;;;3.66;100.00;100985.81;5087629;28;19925;-72
2021/05/03 04:28:39;;;;;;;;;;;;;;;3.62;100.00;100989.59;5076152;28;19931;-71
2021/05/03 04:31:05;;;;;;;;;;;;;;;3.60;100.00;100983.44;5092428;28;20303;-71
2021/05/03 04:33:31;;;;;;;;;;;;;;;3.60;100.00;100995.03;5085369;28;19928;-71
2021/05/03 04:35:58;;;;;;;;;;;;;;;3.57;100.00;100992.53;5088723;28;19985;-72
2021/05/03 04:38:24;;;;;;;;;;;;;;;3.60;100.00;100999.56;5093944;28;20346;-72
2021/05/03 04:40:50;;;;;;;;;;;;;;;3.59;100.00;100998.66;5094092;28;20041;-70
2021/05/03 04:43:16;;;;;;;;;;;;;;;3.64;100.00;100998.47;5094247;28;20040;-72
2021/05/03 04:45:43;;;;;;;;;;;;;;;3.68;100.00;101005.44;5094051;28;19933;-71
2021/05/03 04:48:09;;;;;;;;;;;;;;;3.67;100.00;101004.56;5094060;28;19971;-72
2021/05/03 04:50:34;;;;;;;;;;;;;;;3.64;100.00;100996.63;5093928;28;20065;-72
2021/05/03 04:53:00;;;;;;;;;;;;;;;3.65;100.00;101006.44;5094183;28;19990;-71
2021/05/03 04:55:26;;;;;;;;;;;;;;;3.67;100.00;101009.94;5092649;28;19924;-71
2021/05/03 04:57:52;;;;;;;;;;;;;;;3.75;100.00;101006.84;5090045;28;20027;-71
2021/05/03 05:00:18;;;;;;;;;;;;;;;3.73;100.00;101006.09;5088612;28;20018;-71
2021/05/03 05:02:45;;;;;;;;;;;;;;;3.78;100.00;101009.41;5078259;28;19972;-71
2021/05/03 05:05:12;;;;;;;;;;;;;;;3.77;100.00;101007.66;5085080;28;19928;-71
2021/05/03 05:07:38;;;;;;;;;;;;;;;3.87;100.00;101009.91;5073214;28;19977;-71
2021/05/03 05:10:04;;;;;;;;;;;;;;;3.88;100.00;101001.78;5073295;28;19928;-70
2021/05/03 05:12:30;;;;;;;;;;;;;;;3.87;100.00;101008.09;5086327;28;20451;-71
2021/05/03 05:14:56;;;;;;;;;;;;;;;3.92;100.00;101010.56;5075964;28;19924;-70
2021/05/03 05:17:22;;;;;;;;;;;;;;;3.92;100.00;101015.94;5088768;28;19993;-71
2021/05/03 05:19:48;;;;;;;;;;;;;;;3.99;100.00;101012.84;5092352;28;19931;-71
2021/05/03 05:22:14;;;;;;;;;;;;;;;4.02;100.00;101019.88;5093092;28;20280;-71
2021/05/03 05:24:40;;;;;;;;;;;;;;;4.14;100.00;101016.63;5091216;28;20018;-71
2021/05/03 05:27:07;;;;;;;;;;;;;;;4.20;100.00;101015.44;5086637;28;19929;-71
2021/05/03 05:29:32;;;;;;;;;;;;;;;4.12;100.00;101010.44;5071660;28;19924;-70
2021/05/03 05:31:58;;;;;;;;;;;;;;;4.16;100.00;101013.84;5091898;28;20422;-70
2021/05/03 05:34:24;;;;;;;;;;;;;;;4.22;100.00;101012.66;5092389;28;19924;-70
2021/05/03 05:36:50;;;;;;;;;;;;;;;4.31;100.00;101010.38;5092486;28;19979;-70
2021/05/03 05:39:16;;;;;;;;;;;;;;;4.38;100.00;101026.19;5080674;28;19931;-70
2021/05/03 05:41:43;;;;;;;;;;;;;;;4.54;100.00;101027.16;5073002;28;20307;-70
2021/05/03 05:44:09;;;;;;;;;;;;;;;4.57;100.00;101018.06;5083671;28;19924;-70
2021/05/03 05:46:35;;;;;;;;;;;;;;;4.58;100.00;101014.44;5079119;28;20417;-71
2021/05/03 05:49:01;;;;;;;;;;;;;;;4.60;100.00;101018.78;5078162;28;20001;-69
2021/05/03 05:51:27;;;;;;;;;;;;;;;4.58;100.00;101031.41;5086012;28;19994;-70
2021/05/03 05:53:53;;;;;;;;;;;;;;;4.62;100.00;101019.59;5091809;28;19946;-70
2021/05/03 05:56:19;;;;;;;;;;;;;;;4.64;100.00;101027.56;5091936;28;20285;-70
2021/05/03 05:58:45;;;;;;;;;;;;;;;4.67;100.00;101030.09;5086027;28;19931;-70
2021/05/03 06:01:11;;;;;;;;;;;;;;;4.75;100.00;101025.19;5072210;28;19956;-70
2021/05/03 06:03:37;;;;;;;;;;;;;;;4.86;100.00;101028.19;5075101;28;20292;-70
2021/05/03 06:06:03;;;;;;;;;;;;;;;4.83;100.00;101022.94;5090647;28;19931;-70
2021/05/03 06:08:28;;;;;;;;;;;;;;;4.84;100.00;101029.22;5088251;28;19981;-69
2021/05/03 06:10:55;;;;;;;;;;;;;;;4.86;100.00;101022.81;5071840;28;19929;-70
2021/05/03 06:13:21;;;;;;;;;;;;;;;5.08;100.00;101031.53;5073744;28;19925;-70
2021/05/03 06:15:47;;;;;;;;;;;;;;;5.18;100.00;101025.63;5091315;28;19924;-70
2021/05/03 06:18:13;;;;;;;;;;;;;;;5.50;100.00;101020.25;5082771;28;19947;-71
2021/05/03 06:20:39;;;;;;;;;;;;;;;6.05;100.00;101018.13;5071478;28;19928;-70
2021/05/03 06:23:06;;;;;;;;;;;;;;;6.46;100.00;101012.16;5072208;28;19931;-71
2021/05/03 06:25:32;;;;;;;;;;;;;;;6.85;100.00;101018.84;5071526;28;19928;-71
2021/05/03 06:27:59;;;;;;;;;;;;;;;6.91;100.00;101012.19;5088620;28;19931;-71
2021/05/03 06:30:25;;;;;;;;;;;;;;;7.17;100.00;101015.94;5090146;28;20004;-70
2021/05/03 06:32:52;;;;;;;;;;;;;;;6.86;100.00;101012.44;5089181;28;20259;-70
2021/05/03 06:35:18;;;;;;;;;;;;;;;6.71;100.00;101016.09;5081006;28;19939;-70
2021/05/03 06:37:43;;;;;;;;;;;;;;;7.08;100.00;101024.66;5071695;28;19940;-70
2021/05/03 06:40:10;;;;;;;;;;;;;;;7.79;100.00;101012.06;5082992;28;19946;-70
2021/05/03 06:42:36;;;;;;;;;;;;;;;8.33;100.00;101013.03;5090933;28;20040;-71
2021/05/03 06:45:03;;;;;;;;;;;;;;;7.99;100.00;101007.16;5084771;28;20384;-70
2021/05/03 06:47:28;;;;;;;;;;;;;;;7.91;100.00;101013.09;5069477;28;20681;-71
2021/05/03 06:49:54;;;;;;;;;;;;;;;7.97;100.00;101018.09;5076297;28;19923;-71
2021/05/03 06:52:20;;;;;;;;;;;;;;;8.47;100.00;101025.66;5082280;28;19925;-71
2021/05/03 06:54:46;;;;;;;;;;;;;;;8.34;100.00;101023.75;5093227;28;19963;-71
2021/05/03 06:57:12;;;;;;;;;;;;;;;7.93;100.00;101021.09;5080132;28;20340;-71
2021/05/03 06:59:38;;;;;;;;;;;;;;;8.26;100.00;101022.53;5090064;28;19928;-71
2021/05/03 07:02:05;;;;;;;;;;;;;;;8.00;100.00;101023.31;5090882;28;19997;-70
2021/05/03 07:04:31;;;;;;;;;;;;;;;8.21;100.00;101029.09;5088292;28;19934;-70
2021/05/03 07:06:57;;;;;;;;;;;;;;;7.68;100.00;101033.50;5072481;28;20011;-69
2021/05/03 07:09:22;;;;;;;;;;;;;;;7.69;100.00;101035.22;5087005;28;19928;-69
2021/05/03 07:11:51;;;;;;;;;;;;;;;7.57;100.00;101036.03;5083294;28;19925;-70
2021/05/03 07:14:16;;;;;;;;;;;;;;;7.33;100.00;101040.16;5088649;28;19965;-69
2021/05/03 07:16:42;;;;;;;;;;;;;;;7.09;100.00;101039.84;5086039;28;19924;-71
2021/05/03 07:19:09;;;;;;;;;;;;;;;7.08;100.00;101046.25;5080344;28;19986;-69
2021/05/03 07:21:35;;;;;;;;;;;;;;;7.36;100.00;101037.28;5088378;28;19967;-70
2021/05/03 07:24:02;;;;;;;;;;;;;;;7.50;100.00;101033.72;5090121;28;20240;-71
2021/05/03 07:26:28;;;;;;;;;;;;;;;7.62;100.00;101036.59;5078104;28;19925;-72
2021/05/03 07:28:54;;;;;;;;;;;;;;;7.52;100.00;101039.00;5090628;28;20363;-72
2021/05/03 07:31:20;;;;;;;;;;;;;;;7.38;100.00;101045.28;5090123;28;19973;-71
2021/05/03 07:33:46;;;;;;;;;;;;;;;7.30;100.00;101043.06;5091312;28;19924;-71
2021/05/03 07:36:12;;;;;;;;;;;;;;;7.32;100.00;101051.06;5085016;28;19925;-71
2021/05/03 07:38:38;;;;;;;;;;;;;;;7.22;100.00;101039.97;5070861;28;19928;-71
2021/05/03 07:41:06;;;;;;;;;;;;;;;7.09;100.00;101041.69;5075043;28;19928;-72
2021/05/03 07:43:32;;;;;;;;;;;;;;;7.30;100.00;101047.59;5090594;28;19928;-71
2021/05/03 07:45:58;;;;;;;;;;;;;;;7.23;100.00;101033.63;5089892;28;19981;-71
2021/05/03 07:48:24;;;;;;;;;;;;;;;7.52;100.00;101037.19;5090828;28;19936;-71
2021/05/03 07:50:50;;;;;;;;;;;;;;;8.10;100.00;101036.22;5087704;28;19931;-71
2021/05/03 07:53:17;;;;;;;;;;;;;;;8.63;100.00;101036.31;5073031;28;19993;-71
2021/05/03 07:55:42;;;;;;;;;;;;;;;9.28;100.00;101034.56;5082356;28;19977;-71
2021/05/03 07:58:08;;;;;;;;;;;;;;;9.69;100.00;101033.44;5093495;28;20294;-70
2021/05/03 08:00:34;;;;;;;;;;;;;;;10.17;100.00;101022.66;5074614;28;19932;-71
2021/05/03 08:03:01;;;;;;;;;;;;;;;10.51;100.00;101036.41;5074183;28;19977;-71
2021/05/03 08:05:27;;;;;;;;;;;;;;;10.38;100.00;101039.19;5088449;28;20326;-71
2021/05/03 08:07:53;;;;;;;;;;;;;;;10.07;100.00;101040.56;5074503;28;19925;-71
2021/05/03 08:10:19;;;;;;;;;;;;;;;9.86;100.00;101033.06;5089607;28;19931;-71
2021/05/03 08:12:45;;;;;;;;;;;;;;;9.66;100.00;101041.75;5094857;28;19956;-71
2021/05/03 08:15:12;;;;;;;;;;;;;;;9.36;100.00;101043.84;5077381;28;19970;-71
2021/05/03 08:17:38;;;;;;;;;;;;;;;9.52;100.00;101045.47;5087218;28;19924;-71
2021/05/03 08:20:05;;;;;;;;;;;;;;;9.65;100.00;101059.03;5094151;28;19928;-71
2021/05/03 08:22:31;;;;;;;;;;;;;;;9.84;100.00;101040.44;5077951;28;19929;-71
2021/05/03 08:24:57;;;;;;;;;;;;;;;9.83;100.00;101059.53;5086262;28;19932;-71
2021/05/03 08:27:24;;;;;;;;;;;;;;;9.31;100.00;101056.00;5073409;28;19932;-71
2021/05/03 08:29:49;;;;;;;;;;;;;;;8.78;100.00;101067.75;5087877;28;19985;-71
2021/05/03 08:32:15;;;;;;;;;;;;;;;8.59;100.00;101069.97;5094380;28;20386;-71
2021/05/03 08:34:41;;;;;;;;;;;;;;;8.62;100.00;101072.47;5091917;28;19924;-71
2021/05/03 08:37:07;;;;;;;;;;;;;;;8.67;100.00;101068.50;5093694;28;20307;-70
2021/05/03 08:39:33;;;;;;;;;;;;;;;8.37;100.00;101071.38;5082898;28;20027;-71
2021/05/03 08:42:00;;;;;;;;;;;;;;;8.34;100.00;101074.31;5074004;28;19931;-71
2021/05/03 08:44:28;;;;;;;;;;;;;;;8.13;100.00;101072.03;5083368;28;19978;-71
2021/05/03 08:46:54;;;;;;;;;;;;;;;8.19;100.00;101077.03;5093661;28;19932;-70
2021/05/03 08:49:22;;;;;;;;;;;;;;;8.20;100.00;101070.66;5084978;28;20005;-70
2021/05/03 08:51:52;;;;;;;;;;;;;;;8.37;100.00;101074.09;5081277;28;19924;-70
2021/05/03 08:54:24;;;;;;;;;;;;;;;8.59;100.00;101075.38;5092509;28;20076;-70
2021/05/03 08:56:50;;;;;;;;;;;;;;;8.35;100.00;101068.78;5091630;28;19954;-71
2021/05/03 08:59:16;;;;;;;;;;;;;;;9.00;100.00;101079.81;5093476;28;19928;-71
2021/05/03 09:01:43;;;;;;;;;;;;;;;9.32;100.00;101084.84;5092666;28;20314;-70
2021/05/03 09:04:10;;;;;;;;;;;;;;;9.18;100.00;101078.53;5079592;28;19932;-70
2021/05/03 09:06:35;;;;;;;;;;;;;;;9.19;100.00;101088.41;5076046;28;20465;-70
2021/05/03 09:09:03;;;;;;;;;;;;;;;9.13;100.00;101072.56;5073029;28;19925;-71
2021/05/03 09:11:29;;;;;;;;;;;;;;;9.39;100.00;101078.00;5077057;28;19928;-71
2021/05/03 09:14:06;;;;;;;;;;;;;;;9.74;100.00;101073.75;5093214;28;19932;-70
2021/05/03 09:16:32;;;;;;;;;;;;;;;10.00;100.00;101078.13;5091806;28;19972;-65
2021/05/03 09:19:00;;;;;;;;;;;;;;;10.43;100.00;101074.13;5093296;28;19928;-64
2021/05/03 09:21:29;;;;;;;;;;;;;;;10.67;100.00;101075.97;5089026;28;19986;-65
2021/05/03 09:23:59;;;;;;;;;;;;;;;10.18;100.00;101059.66;5084631;28;19955;-64
2021/05/03 09:26:32;;;;;;;;;;;;;;;10.63;100.00;101063.59;5091086;28;20296;-65
2021/05/03 09:28:58;;;;;;;;;;;;;;;10.92;100.00;101065.94;5072556;28;19925;-65
2021/05/03 09:31:24;;;;;;;;;;;;;;;11.03;100.00;101068.69;5071105;28;19935;-65
2021/05/03 09:33:50;;;;;;;;;;;;;;;10.62;100.00;101061.88;5080075;28;19932;-65
2021/05/03 09:36:21;;;;;;;;;;;;;;;10.14;100.00;101065.41;5088055;28;20355;-66
2021/05/03 09:38:48;;;;;;;;;;;;;;;9.81;100.00;101045.22;5085668;28;19924;-65
2021/05/03 09:41:15;;;;;;;;;;;;;;;11.54;100.00;101051.97;5084971;28;20032;-65
2021/05/03 09:43:42;;;;;;;;;;;;;;;11.55;100.00;101050.09;5079356;28;20299;-65
2021/05/03 09:46:26;;;;;;;;;;;;;;;12.58;100.00;101051.69;5088155;28;19925;-66
2021/05/03 09:48:53;;;;;;;;;;;;;;;12.08;97.49;101054.03;5092544;28;19963;-66
2021/05/03 09:54:56;;;;;;;;;;;;;;;10.82;96.56;101036.78;5057740;22;20420;-65
2021/05/03 09:57:22;;;;;;;;;;;;;;;10.74;100.00;101047.34;5062693;28;19972;-64
2021/05/03 09:59:49;;;;;;;;;;;;;;;10.58;99.85;101054.94;5050259;28;19924;-65
2021/05/03 10:02:18;;;;;;;;;;;;;;;10.68;97.06;101045.97;5070256;28;20287;-65
2021/05/03 10:04:48;;;;;;;;;;;;;;;11.18;94.84;101053.91;5071764;28;19987;-65
2021/05/03 10:07:18;;;;;;;;;;;;;;;11.10;93.02;101050.91;5048763;28;19925;-65
2021/05/03 10:09:46;;;;;;;;;;;;;;;10.94;94.51;101050.38;5055930;28;19928;-65
2021/05/03 10:12:13;;;;;;;;;;;;;;;10.63;98.50;101047.31;5053748;28;19929;-65
2021/05/03 10:14:39;;;;;;;;;;;;;;;10.45;100.00;101055.88;5067917;28;19925;-65
2021/05/03 10:17:05;;;;;;;;;;;;;;;10.62;100.00;101054.59;5051845;28;20291;-64
2021/05/03 10:19:33;;;;;;;;;;;;;;;10.58;99.54;101047.66;5053695;28;19929;-65
2021/05/03 10:21:58;;;;;;;;;;;;;;;11.06;100.00;101043.97;5071269;28;19936;-65
2021/05/03 10:24:24;;;;;;;;;;;;;;;11.23;97.54;101045.38;5069500;28;19928;-65
2021/05/03 10:26:51;;;;;;;;;;;;;;;10.79;92.76;101039.72;5051506;28;20387;-66
2021/05/03 10:29:29;;;;;;;;;;;;;;;10.40;93.67;101036.38;5051576;28;19935;-66
2021/05/03 10:31:57;;;;;;;;;;;;;;;10.51;94.51;101049.13;5045718;28;19932;-65
2021/05/03 10:34:39;;;;;;;;;;;;;;;10.58;96.02;101042.22;5054490;28;20318;-64
2021/05/03 10:37:24;;;;;;;;;;;;;;;10.90;92.08;101044.31;5051506;28;20371;-65
2021/05/03 10:39:50;;;;;;;;;;;;;;;10.54;88.06;101046.16;5071551;28;19924;-65
2021/05/03 10:42:16;;;;;;;;;;;;;;;10.31;89.76;101043.31;5069087;28;20445;-63
2021/05/03 10:45:05;;;;;;;;;;;;;;;10.50;90.25;101056.41;5051590;28;19936;-65
2021/05/03 10:47:35;;;;;;;;;;;;;;;10.34;89.61;101048.53;5054581;28;20635;-66
2021/05/03 10:50:01;;;;;;;;;;;;;;;10.69;88.23;101046.84;5061604;28;19960;-64
2021/05/03 10:52:31;;;;;;;;;;;;;;;11.94;84.28;101028.81;5057798;28;19935;-64
2021/05/03 10:54:57;;;;;;;;;;;;;;;11.67;79.67;101054.56;5066086;28;19925;-66
2021/05/03 10:57:36;;;;;;;;;;;;;;;12.72;74.66;101037.75;5050384;28;20414;-65
2021/05/03 11:00:07;;;;;;;;;;;;;;;13.46;75.78;101032.38;5051439;28;20079;-66
2021/05/03 11:02:44;;;;;;;;;;;;;;;12.48;64.71;101037.09;5054965;28;19937;-66
2021/05/03 11:05:23;;;;;;;;;;;;;;;12.03;70.63;101036.25;5050890;28;19987;-66
2021/05/03 11:08:09;;;;;;;;;;;;;;;11.52;71.13;101047.66;5053596;28;20020;-66
2021/05/03 11:10:53;;;;;;;;;;;;;;;11.52;64.77;101037.63;5031148;28;19925;-66
2021/05/03 11:13:39;;;;;;;;;;;;;;;11.26;67.59;101017.09;5041836;28;19925;-66
2021/05/03 11:16:20;;;;;;;;;;;;;;;12.66;73.17;101026.53;5050868;28;20019;-64
2021/05/03 11:18:46;;;;;;;;;;;;;;;13.07;62.05;101016.66;5050238;28;20019;-65
2021/05/03 11:21:15;;;;;;;;;;;;;;;12.96;58.90;101013.97;5051218;28;19931;-65
2021/05/03 11:23:41;;;;;;;;;;;;;;;12.94;61.47;101015.97;5050406;28;20394;-65
2021/05/03 11:26:25;;;;;;;;;;;;;;;13.03;66.06;101021.47;5049998;28;19925;-65
2021/05/03 11:28:51;;;;;;;;;;;;;;;13.01;65.81;101017.16;5060756;28;20391;-66
2021/05/03 11:31:20;;;;;;;;;;;;;;;12.28;58.75;101022.44;5058641;28;19931;-66
2021/05/03 11:33:57;;;;;;;;;;;;;;;12.72;60.46;101015.97;5050142;28;20243;-65
2021/05/03 11:36:25;;;;;;;;;;;;;;;12.99;61.51;101016.44;5051696;28;20330;-65
2021/05/03 11:38:59;;;;;;;;;;;;;;;12.99;58.08;101014.56;5054232;28;19925;-65
2021/05/03 11:44:14;;;;;;;;;;;;;;;11.92;65.50;101014.50;5052407;28;20391;-64
2021/05/03 11:46:40;;;;;;;;;;;;;;;11.21;68.76;101026.50;5051726;28;19964;-65
2021/05/03 11:49:17;;;;;;;;;;;;;;;10.81;74.24;101024.19;5051719;28;20019;-65
2021/05/03 11:51:44;;;;;;;;;;;;;;;10.53;84.37;101023.59;5043386;28;19924;-65
2021/05/03 11:54:22;;;;;;;;;;;;;;;10.06;81.10;101019.84;5050518;28;20406;-66
2021/05/03 11:56:53;;;;;;;;;;;;;;;10.37;80.63;101039.31;5064155;28;19924;-66
2021/05/03 11:59:19;;;;;;;;;;;;;;;10.55;75.84;101028.91;5067848;28;19931;-64
2021/05/03 12:01:56;;;;;;;;;;;;;;;11.01;74.55;101024.47;5056067;28;19959;-65
2021/05/03 12:04:31;;;;;;;;;;;;;;;10.99;70.17;101018.31;5051677;28;19925;-67
2021/05/03 12:06:57;;;;;;;;;;;;;;;11.28;71.53;101032.31;5051033;28;19932;-66
2021/05/03 12:09:23;;;;;;;;;;;;;;;11.07;70.65;101013.13;5049207;28;20027;-66
2021/05/03 12:11:55;;;;;;;;;;;;;;;11.15;73.87;101005.22;5057785;28;20421;-66
2021/05/03 12:14:36;;;;;;;;;;;;;;;11.73;68.92;101015.09;5066759;28;19925;-68
2021/05/03 12:17:02;;;;;;;;;;;;;;;11.87;67.83;101003.97;5050314;28;19924;-64
2021/05/03 12:19:28;;;;;;;;;;;;;;;11.72;64.87;101002.53;5056727;28;19931;-64
2021/05/03 12:22:01;;;;;;;;;;;;;;;12.03;64.83;101008.19;5070208;28;19966;-65
2021/05/03 12:24:33;;;;;;;;;;;;;;;12.17;64.27;100997.03;5067942;28;20339;-65
2021/05/03 12:26:59;;;;;;;;;;;;;;;12.62;64.80;101011.44;5065624;28;19929;-64
2021/05/03 12:29:26;;;;;;;;;;;;;;;13.07;61.69;101001.16;5054679;28;19929;-64
2021/05/03 12:31:52;;;;;;;;;;;;;;;12.77;59.53;100999.22;5031630;28;19933;-66
2021/05/03 12:34:21;;;;;;;;;;;;;;;13.00;63.24;101001.81;5052694;28;20342;-65
2021/05/03 12:37:03;;;;;;;;;;;;;;;12.90;57.62;100999.88;5061398;28;19975;-64
2021/05/03 12:39:29;;;;;;;;;;;;;;;12.98;55.73;100984.75;5056998;28;20422;-65
2021/05/03 12:41:55;;;;;;;;;;;;;;;12.44;55.86;100995.69;5041784;28;19925;-64
2021/05/03 12:44:24;;;;;;;;;;;;;;;12.05;58.08;100995.31;5054245;28;19933;-64
2021/05/03 12:46:50;;;;;;;;;;;;;;;11.72;61.23;100997.09;5053399;28;19925;-64
2021/05/03 12:49:24;;;;;;;;;;;;;;;11.72;63.87;101003.38;5012641;28;20471;-64
2021/05/03 12:52:00;;;;;;;;;;;;;;;11.52;67.32;100996.00;5064385;28;20007;-64